Time;durP1;ratioP1;P1;durP2;ratioP2;P2;SDS_P1;SDS_P2;PMS_P1;PMS_P2;Temp;Humidity;BMP_temperature;BMP_pressure;BME280_temperature;BME280_humidity;BME280_pressure;Samples;Min_cycle;Max_cycle;Signal;HPM_P1;HPM_P2
2024/02/22 00:00:53;;;;;;;3.90;3.33;;;;;10.00;99480.00;;;;9980423;29;20253;-77
2024/02/22 00:05:55;;;;;;;4.87;4.07;;;;;10.00;99468.00;;;;9970269;29;20596;-78
2024/02/22 00:10:57;;;;;;;3.90;3.47;;;;;10.00;99459.00;;;;9973580;29;20232;-80
2024/02/22 00:16:02;;;;;;;4.10;3.30;;;;;10.00;99442.00;;;;9966117;29;20780;-77
2024/02/22 00:21:03;;;;;;;3.37;2.80;;;;;10.10;99432.00;;;;10011991;29;20855;-79
2024/02/22 00:26:05;;;;;;;3.57;3.27;;;;;10.10;99414.00;;;;9981672;29;20229;-78
2024/02/22 00:31:06;;;;;;;4.40;3.73;;;;;10.10;99407.00;;;;9987132;29;20669;-77
2024/02/22 00:36:07;;;;;;;3.93;3.27;;;;;10.10;99393.00;;;;9986019;29;20228;-80
2024/02/22 00:41:09;;;;;;;3.50;3.20;;;;;10.20;99388.00;;;;9995679;29;20803;-79
2024/02/22 00:46:11;;;;;;;4.47;3.83;;;;;10.20;99381.00;;;;9957675;29;20286;-78
2024/02/22 00:51:12;;;;;;;6.30;4.47;;;;;10.20;99378.00;;;;9983667;29;20860;-77
2024/02/22 00:56:15;;;;;;;7.73;3.77;;;;;10.20;99372.00;;;;9984356;29;20711;-79
2024/02/22 01:01:16;;;;;;;4.20;3.87;;;;;10.30;99365.00;;;;9994509;29;20226;-78
2024/02/22 01:06:18;;;;;;;4.83;4.33;;;;;10.30;99362.00;;;;9999829;29;20831;-76
2024/02/22 01:11:19;;;;;;;4.83;4.07;;;;;10.30;99358.00;;;;9975682;29;20220;-77
2024/02/22 01:16:21;;;;;;;5.17;4.67;;;;;10.30;99353.00;;;;9969559;29;20228;-77
2024/02/22 01:21:22;;;;;;;4.53;4.13;;;;;10.40;99345.00;;;;9998052;29;20233;-77
2024/02/22 01:26:23;;;;;;;5.33;4.83;;;;;10.40;99340.00;;;;9992473;29;20237;-78
2024/02/22 01:31:24;;;;;;;7.33;5.30;;;;;10.40;99344.00;;;;9957634;29;20221;-78
2024/02/22 01:36:25;;;;;;;8.60;5.00;;;;;10.40;99338.00;;;;9966336;29;20218;-79
2024/02/22 01:41:26;;;;;;;6.30;5.53;;;;;10.40;99337.00;;;;9976484;29;20233;-80
2024/02/22 01:46:30;;;;;;;6.90;5.90;;;;;10.40;99342.00;;;;9970483;29;20836;-78
2024/02/22 01:51:31;;;;;;;6.83;5.73;;;;;10.40;99321.00;;;;9967118;29;20454;-78
2024/02/22 01:56:33;;;;;;;6.50;5.77;;;;;10.40;99322.00;;;;9990202;29;20237;-79
2024/02/22 02:01:34;;;;;;;8.20;5.77;;;;;10.40;99306.00;;;;9962456;29;20329;-79
2024/02/22 02:06:36;;;;;;;7.17;6.07;;;;;10.40;99298.00;;;;9993623;29;20225;-79
2024/02/22 02:11:38;;;;;;;9.30;5.50;;;;;10.40;99286.00;;;;9997875;29;20307;-78
2024/02/22 02:16:40;;;;;;;9.50;5.50;;;;;10.40;99282.00;;;;9961316;29;20365;-79
2024/02/22 02:21:56;;;;;;;7.40;5.17;;;;;10.40;99268.00;;;;9995874;29;20233;-79
2024/02/22 02:26:59;;;;;;;6.73;5.23;;;;;10.40;99260.00;;;;9997599;29;20260;-79
2024/02/22 02:32:01;;;;;;;8.23;4.87;;;;;10.40;99243.00;;;;9987248;29;20226;-80
2024/02/22 02:37:02;;;;;;;8.60;4.70;;;;;10.30;99235.00;;;;9980079;29;20225;-79
2024/02/22 02:42:05;;;;;;;4.43;3.97;;;;;10.30;99208.00;;;;9981252;29;20278;-78
2024/02/22 02:47:07;;;;;;;5.47;3.87;;;;;10.30;99194.00;;;;9982719;29;20252;-78
2024/02/22 02:52:09;;;;;;;5.17;3.60;;;;;10.30;99196.00;;;;9960105;29;20233;-77
2024/02/22 02:57:10;;;;;;;3.83;3.03;;;;;10.30;99196.00;;;;9992242;29;20233;-79
2024/02/22 03:02:11;;;;;;;4.40;2.77;;;;;10.20;99190.00;;;;9967759;29;20229;-78
2024/02/22 03:07:12;;;;;;;5.37;2.40;;;;;10.20;99187.00;;;;9970606;29;20927;-78
2024/02/22 03:12:13;;;;;;;3.13;2.20;;;;;10.20;99176.00;;;;9965694;29;21058;-79
2024/02/22 03:17:15;;;;;;;5.13;2.73;;;;;10.20;99163.00;;;;9960244;29;20264;-78
2024/02/22 03:22:16;;;;;;;3.07;1.90;;;;;10.10;99165.00;;;;9980651;29;20225;-78
2024/02/22 03:27:17;;;;;;;3.00;1.73;;;;;10.10;99167.00;;;;10005530;29;20269;-78
2024/02/22 03:32:18;;;;;;;3.03;1.40;;;;;10.00;99177.00;;;;9980110;29;20230;-78
2024/02/22 03:37:20;;;;;;;2.50;1.60;;;;;10.00;99167.00;;;;9967330;29;20229;-78
2024/02/22 03:42:22;;;;;;;1.77;1.43;;;;;10.00;99143.00;;;;9987746;29;20273;-78
2024/02/22 03:47:23;;;;;;;3.17;1.47;;;;;10.00;99141.00;;;;9981372;29;20895;-77
2024/02/22 03:52:24;;;;;;;1.93;1.53;;;;;9.90;99129.00;;;;9966492;29;20225;-78
2024/02/22 03:57:25;;;;;;;2.83;1.60;;;;;9.90;99118.00;;;;9976658;29;20849;-79
2024/02/22 04:02:26;;;;;;;2.73;1.37;;;;;9.80;99108.00;;;;10017887;29;20306;-81
2024/02/22 04:07:28;;;;;;;1.73;1.27;;;;;9.90;99105.00;;;;10004882;29;20953;-79
2024/02/22 04:12:29;;;;;;;3.40;1.40;;;;;9.90;99098.00;;;;9961636;29;20626;-79
2024/02/22 04:17:30;;;;;;;2.60;1.23;;;;;9.90;99087.00;;;;9996146;29;20233;-79
2024/02/22 04:22:43;;;;;;;1.30;1.20;;;;;9.90;99085.00;;;;9987950;29;20320;-80
2024/02/22 04:27:44;;;;;;;4.67;1.70;;;;;9.80;99072.00;;;;9999385;29;20786;-79
2024/02/22 04:32:46;;;;;;;3.57;1.37;;;;;9.80;99056.00;;;;9971114;29;20308;-80
2024/02/22 04:37:48;;;;;;;1.30;1.13;;;;;9.80;99057.00;;;;9982397;29;20634;-79
2024/02/22 04:42:49;;;;;;;3.43;1.20;;;;;9.80;99071.00;;;;9985906;29;20997;-78
2024/02/22 04:47:50;;;;;;;3.00;1.00;;;;;9.80;99078.00;;;;9967875;29;20228;-80
2024/02/22 04:52:52;;;;;;;3.70;1.50;;;;;9.80;99085.00;;;;9959496;29;20312;-80
2024/02/22 04:57:54;;;;;;;4.40;1.50;;;;;9.90;99083.00;;;;9992648;29;20229;-78
2024/02/22 05:02:55;;;;;;;2.70;1.50;;;;;9.90;99081.00;;;;9964355;29;20235;-79
2024/02/22 05:07:56;;;;;;;3.67;1.70;;;;;9.90;99059.00;;;;9990013;29;20988;-79
2024/02/22 05:12:58;;;;;;;3.13;1.83;;;;;9.80;99030.00;;;;9957127;29;20732;-81
2024/02/22 05:17:59;;;;;;;3.20;1.63;;;;;9.80;99029.00;;;;9971781;29;20234;-79
2024/02/22 05:23:05;;;;;;;2.23;1.33;;;;;9.70;99018.00;;;;9976285;29;20233;-80
2024/02/22 05:28:08;;;;;;;2.37;1.50;;;;;9.70;99020.00;;;;9985220;29;20582;-79
2024/02/22 05:33:09;;;;;;;5.33;1.63;;;;;9.70;99028.00;;;;9988532;29;20240;-79
2024/02/22 05:38:10;;;;;;;5.50;1.80;;;;;9.70;98992.00;;;;9987051;29;20221;-80
2024/02/22 05:43:11;;;;;;;2.50;1.30;;;;;9.60;99000.00;;;;9963048;29;20601;-79
2024/02/22 05:48:13;;;;;;;1.63;1.20;;;;;9.50;98985.00;;;;9998284;29;20312;-79
2024/02/22 05:53:14;;;;;;;2.43;1.20;;;;;9.40;98973.00;;;;9959075;29;22523;-78
2024/02/22 05:58:17;;;;;;;5.13;1.40;;;;;9.30;98975.00;;;;9979290;29;20600;-79
2024/02/22 06:03:18;;;;;;;3.00;1.23;;;;;9.20;98954.00;;;;9971869;29;20237;-79
2024/02/22 06:08:20;;;;;;;2.20;1.33;;;;;9.10;98948.00;;;;9961757;29;20252;-79
2024/02/22 06:13:21;;;;;;;1.27;0.93;;;;;9.00;98936.00;;;;9965393;29;20232;-79
2024/02/22 06:18:22;;;;;;;3.53;1.60;;;;;9.00;98944.00;;;;9963638;29;20415;-77
2024/02/22 06:23:23;;;;;;;5.80;1.50;;;;;8.90;98933.00;;;;9991451;29;20234;-77
2024/02/22 06:28:25;;;;;;;2.60;1.40;;;;;8.90;98914.00;;;;9975804;29;20592;-77
2024/02/22 06:33:26;;;;;;;1.23;0.90;;;;;8.80;98906.00;;;;9956915;29;20971;-77
2024/02/22 06:38:27;;;;;;;1.17;0.80;;;;;8.70;98907.00;;;;9987448;29;20665;-77
2024/02/22 06:43:28;;;;;;;1.37;0.80;;;;;8.70;98887.00;;;;10016369;29;20221;-80
2024/02/22 06:48:30;;;;;;;1.13;1.00;;;;;8.70;98879.00;;;;9966331;29;20229;-78
2024/02/22 06:53:31;;;;;;;1.30;1.20;;;;;8.70;98885.00;;;;9964446;29;20225;-78
2024/02/22 06:58:32;;;;;;;2.67;0.90;;;;;8.80;98876.00;;;;9988704;29;20252;-78
2024/02/22 07:03:33;;;;;;;2.87;0.77;;;;;8.90;98859.00;;;;9999344;29;20237;-77
2024/02/22 07:08:34;;;;;;;1.00;0.83;;;;;8.90;98853.00;;;;9991409;29;20371;-79
2024/02/22 07:13:36;;;;;;;0.83;0.67;;;;;8.90;98840.00;;;;9990504;29;20221;-78
2024/02/22 07:18:37;;;;;;;0.80;0.70;;;;;9.00;98828.00;;;;10000138;29;20574;-79
2024/02/22 07:23:38;;;;;;;1.23;0.70;;;;;9.20;98811.00;;;;9988022;29;20226;-78
2024/02/22 07:28:39;;;;;;;2.20;0.90;;;;;9.30;98794.00;;;;9980058;29;20765;-81
2024/02/22 07:33:41;;;;;;;1.33;1.10;;;;;9.40;98793.00;;;;9983424;29;20228;-80
2024/02/22 07:38:42;;;;;;;4.73;0.63;;;;;9.50;98763.00;;;;9989031;29;20244;-80
2024/02/22 07:43:45;;;;;;;0.70;0.70;;;;;9.60;98743.00;;;;9995804;29;20253;-80
2024/02/22 07:48:46;;;;;;;1.63;0.90;;;;;9.70;98725.00;;;;9986251;29;20304;-82
2024/02/22 07:54:08;;;;;;;1.30;0.90;;;;;9.80;98726.00;;;;9970001;29;20229;-80
2024/02/22 07:59:11;;;;;;;2.37;1.37;;;;;9.90;98719.00;;;;9964353;29;20229;-81
2024/02/22 08:04:13;;;;;;;2.80;2.27;;;;;10.00;98701.00;;;;9984026;29;20245;-79
2024/02/22 08:09:14;;;;;;;5.50;3.60;;;;;10.20;98711.00;;;;9981252;29;20224;-81
2024/02/22 08:14:15;;;;;;;5.47;4.43;;;;;10.40;98684.00;;;;9979875;29;20359;-81
2024/02/22 08:19:17;;;;;;;5.07;4.57;;;;;10.60;98671.00;;;;9993535;29;20234;-81
2024/02/22 08:24:20;;;;;;;5.33;4.67;;;;;10.80;98657.00;;;;9991705;29;20225;-81
2024/02/22 08:29:21;;;;;;;5.30;4.80;;;;;11.00;98641.00;;;;9989063;29;20233;-80
2024/02/22 08:34:23;;;;;;;5.17;4.00;;;;;11.10;98656.00;;;;9959771;29;20225;-80
2024/02/22 08:39:24;;;;;;;6.20;3.60;;;;;11.30;98631.00;;;;9952879;29;20668;-79
2024/02/22 08:44:26;;;;;;;3.70;3.30;;;;;11.60;98628.00;;;;9991207;29;20244;-79
2024/02/22 08:49:27;;;;;;;4.03;2.50;;;;;11.70;98607.00;;;;9970357;29;20232;-82
2024/02/22 08:54:29;;;;;;;2.27;2.07;;;;;11.90;98585.00;;;;9980857;29;20313;-83
2024/02/22 08:59:31;;;;;;;2.53;2.23;;;;;12.20;98545.00;;;;9989173;29;20229;-82
2024/02/22 09:04:33;;;;;;;3.57;2.07;;;;;12.60;98516.00;;;;9994259;29;20613;-82
2024/02/22 09:09:34;;;;;;;2.65;1.45;;;;;13.00;98499.00;;;;9988141;29;20229;-79
2024/02/22 09:14:35;;;;;;;1.30;1.20;;;;;12.80;98480.00;;;;9982834;29;20236;-79
2024/02/22 09:19:39;;;;;;;1.40;1.00;;;;;12.50;98473.00;;;;9974839;29;20229;-79
2024/02/22 09:24:45;;;;;;;2.17;1.10;;;;;12.30;98453.00;;;;9972457;29;20220;-78
2024/02/22 09:29:47;;;;;;;1.10;1.00;;;;;12.40;98442.00;;;;9965727;29;20229;-79
2024/02/22 09:34:48;;;;;;;1.13;0.85;;;;;12.40;98434.00;;;;9983579;29;20229;-80
2024/02/22 09:39:50;;;;;;;1.20;1.10;;;;;12.50;98424.00;;;;9980721;29;20959;-79
2024/02/22 09:44:53;;;;;;;1.23;0.90;;;;;12.50;98422.00;;;;9986773;29;20574;-78
2024/02/22 09:49:54;;;;;;;1.17;1.08;;;;;12.50;98399.00;;;;9959216;29;20837;-78
2024/02/22 09:54:56;;;;;;;1.73;0.82;;;;;12.50;98394.00;;;;9944952;29;20704;-80
2024/02/22 09:59:58;;;;;;;1.70;1.08;;;;;12.70;98399.00;;;;9979204;29;20316;-78
2024/02/22 10:05:00;;;;;;;2.85;1.08;;;;;12.60;98379.00;;;;9963795;29;20324;-78
2024/02/22 10:10:02;;;;;;;1.23;0.90;;;;;12.70;98363.00;;;;9963438;29;20217;-78
2024/02/22 10:15:06;;;;;;;1.60;0.77;;;;;12.50;98354.00;;;;9977894;29;20228;-80
2024/02/22 10:20:10;;;;;;;0.82;0.80;;;;;12.50;98330.00;;;;9958187;29;20320;-84
2024/02/22 10:25:14;;;;;;;1.00;0.80;;;;;12.50;98329.00;;;;9955520;29;20636;-81
2024/02/22 10:30:18;;;;;;;1.15;0.90;;;;;12.40;98314.00;;;;9978118;29;20312;-79
2024/02/22 10:35:44;;;;;;;0.82;0.80;;;;;12.40;98292.00;;;;9964022;29;20325;-78
2024/02/22 10:41:05;;;;;;;0.80;0.73;;;;;12.50;98270.00;;;;9974797;29;20230;-80
2024/02/22 10:46:10;;;;;;;0.70;0.70;;;;;12.30;98274.00;;;;9958891;29;20255;-78
2024/02/22 10:51:30;;;;;;;0.80;0.60;;;;;12.30;98273.00;;;;9978550;29;20709;-85
2024/02/22 10:56:33;;;;;;;0.75;0.70;;;;;12.50;98251.00;;;;9964844;29;20236;-87
2024/02/22 11:01:37;;;;;;;1.10;0.60;;;;;12.80;98220.00;;;;9978681;29;20234;-86
2024/02/22 11:06:39;;;;;;;2.05;0.60;;;;;13.20;98206.00;;;;9972155;29;20256;-87
2024/02/22 11:11:43;;;;;;;1.02;0.50;;;;;13.60;98195.00;;;;9992320;29;20229;-83
2024/02/22 11:16:44;;;;;;;0.40;0.40;;;;;13.80;98177.00;;;;9954068;29;20232;-82
2024/02/22 11:21:51;;;;;;;0.30;0.30;;;;;14.20;98164.00;;;;9981435;29;20322;-83
2024/02/22 11:26:57;;;;;;;0.43;0.38;;;;;14.40;98152.00;;;;9978926;29;20240;-82
2024/02/22 11:32:03;;;;;;;1.58;0.30;;;;;14.30;98122.00;;;;9995710;29;21116;-82
2024/02/22 11:37:11;;;;;;;0.30;0.30;;;;;14.20;98098.00;;;;9980227;29;20374;-83
2024/02/22 11:42:18;;;;;;;0.30;0.30;;;;;14.40;98069.00;;;;9957629;29;20661;-82
2024/02/22 11:47:19;;;;;;;0.32;0.30;;;;;14.70;98046.00;;;;9985288;29;20229;-84
2024/02/22 11:52:21;;;;;;;0.80;0.30;;;;;14.70;98035.00;;;;9948897;29;20321;-83
2024/02/22 11:57:22;;;;;;;1.20;0.50;;;;;14.60;98024.00;;;;9974763;29;20229;-82
2024/02/22 12:02:24;;;;;;;0.30;0.30;;;;;14.90;97990.00;;;;9971922;29;20237;-81
2024/02/22 12:07:28;;;;;;;1.42;0.52;;;;;15.30;97973.00;;;;9950510;29;20321;-80
2024/02/22 12:12:31;;;;;;;0.60;0.40;;;;;15.40;97959.00;;;;9977254;29;20222;-81
2024/02/22 12:17:34;;;;;;;0.40;0.40;;;;;15.00;97935.00;;;;9966277;29;20229;-79
2024/02/22 12:22:35;;;;;;;0.40;0.40;;;;;14.90;97915.00;;;;9954207;29;20230;-79
2024/02/22 12:27:37;;;;;;;0.30;0.30;;;;;14.70;97893.00;;;;9962929;29;20233;-80
2024/02/22 12:32:49;;;;;;;0.30;0.30;;;;;14.70;97870.00;;;;9986351;29;20829;-79
2024/02/22 12:37:51;;;;;;;0.30;0.30;;;;;15.00;97853.00;;;;9962407;29;20221;-79
2024/02/22 12:42:56;;;;;;;1.85;0.35;;;;;15.20;97855.00;;;;9974185;29;20245;-77
2024/02/22 12:47:57;;;;;;;1.75;0.30;;;;;14.90;97834.00;;;;10009189;29;20279;-77
2024/02/22 12:52:58;;;;;;;0.98;0.40;;;;;15.00;97828.00;;;;9995943;29;20233;-76
2024/02/22 12:58:00;;;;;;;0.90;0.30;;;;;15.10;97807.00;;;;10000360;29;20237;-77
2024/02/22 13:03:03;;;;;;;0.77;0.40;;;;;15.10;97778.00;;;;10007360;29;20221;-76
2024/02/22 13:08:05;;;;;;;0.20;0.20;;;;;15.00;97750.00;;;;9984416;29;20833;-77
2024/02/22 13:13:16;;;;;;;1.85;0.38;;;;;15.00;97730.00;;;;9993220;29;20237;-76
2024/02/22 13:18:17;;;;;;;0.30;0.30;;;;;14.80;97731.00;;;;9987280;29;20281;-78
2024/02/22 13:23:20;;;;;;;0.40;0.40;;;;;14.60;97735.00;;;;9999516;29;20229;-79
2024/02/22 13:28:22;;;;;;;0.30;0.30;;;;;14.30;97694.00;;;;10012331;29;20273;-78
2024/02/22 13:33:23;;;;;;;1.85;0.40;;;;;13.70;97676.00;;;;9979648;29;20916;-79
2024/02/22 13:38:24;;;;;;;0.43;0.30;;;;;13.50;97641.00;;;;9973906;29;20248;-79
2024/02/22 13:43:25;;;;;;;0.45;0.45;;;;;13.90;97628.00;;;;9998934;29;20300;-78
2024/02/22 13:48:26;;;;;;;0.95;0.30;;;;;14.50;97636.00;;;;9958038;29;20590;-79
2024/02/22 13:53:28;;;;;;;0.30;0.28;;;;;14.30;97611.00;;;;9971958;29;20316;-79
2024/02/22 13:58:32;;;;;;;0.28;0.20;;;;;14.30;97596.00;;;;9974570;29;20229;-79
2024/02/22 14:03:33;;;;;;;0.45;0.25;;;;;14.10;97581.00;;;;9977731;29;20233;-78
2024/02/22 14:08:34;;;;;;;0.30;0.30;;;;;14.30;97551.00;;;;10003193;29;20232;-80
2024/02/22 14:13:36;;;;;;;0.40;0.40;;;;;14.80;97533.00;;;;9985743;29;20253;-79
2024/02/22 14:18:37;;;;;;;0.40;0.40;;;;;14.10;97481.00;;;;9988085;29;20590;-79
2024/02/22 14:23:42;;;;;;;0.43;0.40;;;;;14.00;97495.00;;;;9977235;29;20319;-79
2024/02/22 14:28:43;;;;;;;0.45;0.32;;;;;14.10;97433.00;;;;9963085;29;20228;-76
2024/02/22 14:33:46;;;;;;;1.20;0.40;;;;;14.00;97457.00;;;;9997756;29;20233;-77
2024/02/22 14:38:50;;;;;;;1.25;0.65;;;;;14.00;97436.00;;;;9997666;29;20233;-76
2024/02/22 14:43:53;;;;;;;1.48;0.82;;;;;14.00;97400.00;;;;9987206;29;20238;-75
2024/02/22 14:48:54;;;;;;;0.90;0.40;;;;;13.90;97404.00;;;;9977028;29;20648;-75
2024/02/22 14:53:56;;;;;;;0.30;0.30;;;;;13.70;97402.00;;;;9993351;29;20230;-77
2024/02/22 14:58:57;;;;;;;1.42;0.40;;;;;13.40;97411.00;;;;9993048;29;20302;-76
2024/02/22 15:03:58;;;;;;;0.30;0.30;;;;;13.30;97374.00;;;;9974259;29;20324;-75
2024/02/22 15:09:01;;;;;;;0.88;0.50;;;;;13.10;97349.00;;;;9970724;29;20237;-75
2024/02/22 15:14:02;;;;;;;1.73;0.60;;;;;13.00;97395.00;;;;9981868;29;20225;-75
2024/02/22 15:19:06;;;;;;;0.50;0.30;;;;;13.00;97341.00;;;;10005939;29;20731;-76
2024/02/22 15:24:07;;;;;;;0.25;0.25;;;;;13.00;97373.00;;;;9997765;29;20230;-75
2024/02/22 15:29:10;;;;;;;0.30;0.30;;;;;12.80;97380.00;;;;9976664;29;20238;-76
2024/02/22 15:34:12;;;;;;;0.70;0.50;;;;;12.50;97371.00;;;;9997521;29;20229;-76
2024/02/22 15:39:13;;;;;;;0.68;0.38;;;;;12.00;97363.00;;;;10007690;29;20312;-80
2024/02/22 15:44:14;;;;;;;0.38;0.38;;;;;11.60;97314.00;;;;9998750;29;20234;-80
2024/02/22 15:49:15;;;;;;;1.67;0.30;;;;;11.30;97277.00;;;;9990734;29;20226;-78
2024/02/22 15:54:17;;;;;;;1.27;0.70;;;;;11.10;97253.00;;;;9979562;29;20688;-78
2024/02/22 15:59:18;;;;;;;0.40;0.40;;;;;11.20;97185.00;;;;9983436;29;20302;-78
2024/02/22 16:04:20;;;;;;;0.73;0.40;;;;;11.60;97163.00;;;;10009298;29;20228;-79
2024/02/22 16:09:22;;;;;;;1.23;0.40;;;;;11.40;97200.00;;;;9996010;29;20312;-78
2024/02/22 16:14:24;;;;;;;0.53;0.40;;;;;11.30;97193.00;;;;9989523;29;20281;-79
2024/02/22 16:19:25;;;;;;;0.43;0.40;;;;;11.40;97176.00;;;;9994194;29;20966;-80
2024/02/22 16:24:27;;;;;;;0.77;0.47;;;;;11.10;97164.00;;;;9965491;29;20226;-79
2024/02/22 16:29:28;;;;;;;0.20;0.20;;;;;11.00;97161.00;;;;9982428;29;20244;-79
2024/02/22 16:34:29;;;;;;;0.60;0.33;;;;;11.10;97175.00;;;;9980770;29;20229;-79
2024/02/22 16:39:31;;;;;;;0.43;0.27;;;;;11.20;97159.00;;;;9997620;29;20225;-79
2024/02/22 16:44:40;;;;;;;1.50;0.40;;;;;11.20;97162.00;;;;10006045;29;20233;-79
2024/02/22 16:49:41;;;;;;;1.37;0.40;;;;;11.20;97167.00;;;;9985813;29;20217;-80
2024/02/22 16:54:42;;;;;;;0.40;0.30;;;;;11.30;97188.00;;;;9987234;29;20241;-79
2024/02/22 16:59:43;;;;;;;0.40;0.40;;;;;11.40;97217.00;;;;9994494;29;20240;-79
2024/02/22 17:04:45;;;;;;;0.20;0.20;;;;;11.50;97217.00;;;;9987836;29;20916;-80
2024/02/22 17:09:46;;;;;;;0.60;0.30;;;;;11.40;97239.00;;;;9984958;29;20669;-79
2024/02/22 17:14:48;;;;;;;7.30;1.10;;;;;11.10;97386.00;;;;9959505;29;20239;-77
2024/02/22 17:19:49;;;;;;;0.87;0.30;;;;;9.40;97371.00;;;;9980496;29;20864;-77
2024/02/22 17:24:53;;;;;;;1.37;0.60;;;;;8.50;97339.00;;;;9988779;29;20917;-78
2024/02/22 17:29:55;;;;;;;1.97;0.70;;;;;8.20;97329.00;;;;9987101;29;20233;-78
2024/02/22 17:34:56;;;;;;;3.83;0.80;;;;;8.10;97340.00;;;;9975068;29;20251;-78
2024/02/22 17:39:58;;;;;;;6.90;1.60;;;;;8.30;97332.00;;;;9984688;29;20282;-78
2024/02/22 17:44:59;;;;;;;5.80;1.40;;;;;8.40;97384.00;;;;9971834;29;20304;-79
2024/02/22 17:50:01;;;;;;;8.37;1.40;;;;;8.50;97421.00;;;;9973906;29;20712;-78
2024/02/22 17:55:03;;;;;;;8.00;1.77;;;;;8.40;97419.00;;;;9961662;29;20229;-78
2024/02/22 18:00:06;;;;;;;6.27;1.37;;;;;8.30;97425.00;;;;9982821;29;20248;-83
2024/02/22 18:05:11;;;;;;;12.00;2.13;;;;;8.20;97455.00;;;;9994852;29;20238;-82
2024/02/22 18:10:13;;;;;;;8.40;1.70;;;;;8.20;97461.00;;;;9978155;29;20237;-85
2024/02/22 18:15:14;;;;;;;8.23;1.50;;;;;8.20;97498.00;;;;9970224;29;20275;-85
2024/02/22 18:20:16;;;;;;;3.33;1.10;;;;;8.20;97488.00;;;;9981915;29;20243;-84
2024/02/22 18:25:17;;;;;;;7.23;1.20;;;;;8.10;97525.00;;;;9978474;29;20230;-83
2024/02/22 18:30:18;;;;;;;4.80;1.20;;;;;8.00;97526.00;;;;9961062;29;20280;-84
2024/02/22 18:35:19;;;;;;;8.40;1.30;;;;;8.00;97558.00;;;;9978849;29;20805;-84
2024/02/22 18:40:21;;;;;;;4.63;1.40;;;;;8.00;97554.00;;;;9957720;29;20224;-83
2024/02/22 18:45:22;;;;;;;3.50;1.30;;;;;8.00;97584.00;;;;9959688;29;20235;-84
2024/02/22 18:50:23;;;;;;;4.60;1.40;;;;;8.00;97612.00;;;;10003769;29;20240;-83
2024/02/22 18:55:24;;;;;;;8.30;1.87;;;;;8.00;97627.00;;;;9982698;29;20707;-78
2024/02/22 19:00:26;;;;;;;5.43;1.60;;;;;8.00;97627.00;;;;9988809;29;20233;-78
2024/02/22 19:05:27;;;;;;;6.40;1.37;;;;;7.90;97638.00;;;;9967254;29;20230;-86
2024/02/22 19:10:28;;;;;;;12.43;2.47;;;;;7.90;97668.00;;;;9995806;29;20680;-83
2024/02/22 19:15:29;;;;;;;10.23;1.70;;;;;7.80;97695.00;;;;9996540;29;20580;-86
2024/02/22 19:20:31;;;;;;;6.27;1.30;;;;;7.80;97708.00;;;;9970611;29;20312;-84
2024/02/22 19:25:32;;;;;;;8.53;1.53;;;;;7.70;97728.00;;;;9980610;29;20241;-84
2024/02/22 19:30:34;;;;;;;10.03;1.93;;;;;7.50;97729.00;;;;9971871;29;20226;-84
2024/02/22 19:35:37;;;;;;;9.27;1.77;;;;;7.50;97732.00;;;;9963852;29;20237;-85
2024/02/22 19:40:38;;;;;;;6.27;1.77;;;;;7.40;97751.00;;;;9974811;29;20233;-88
2024/02/22 19:45:40;;;;;;;6.47;1.43;;;;;7.30;97772.00;;;;9987425;29;20225;-86
2024/02/22 19:50:41;;;;;;;10.77;2.20;;;;;7.20;97766.00;;;;9980042;29;20641;-86
2024/02/22 19:55:44;;;;;;;10.33;2.70;;;;;7.30;97782.00;;;;10000130;29;20218;-83
2024/02/22 20:00:48;;;;;;;5.10;1.67;;;;;7.40;97787.00;;;;9981727;29;20238;-87
2024/02/22 20:05:49;;;;;;;7.00;1.60;;;;;7.50;97788.00;;;;9994321;29;20584;-85
2024/02/22 20:10:52;;;;;;;6.57;1.10;;;;;7.50;97812.00;;;;9988819;29;20608;-86
2024/02/22 20:15:53;;;;;;;7.03;1.40;;;;;7.50;97811.00;;;;9999248;29;20282;-77
2024/02/22 20:20:59;;;;;;;4.57;1.10;;;;;7.50;97824.00;;;;9996249;29;20226;-78
2024/02/22 20:26:01;;;;;;;7.67;1.17;;;;;7.50;97834.00;;;;10007843;29;20230;-80
2024/02/22 20:31:02;;;;;;;7.00;1.57;;;;;7.50;97849.00;;;;9995259;29;20930;-81
2024/02/22 20:36:07;;;;;;;4.67;1.30;;;;;7.40;97843.00;;;;9996826;29;20835;-81
2024/02/22 20:41:14;;;;;;;6.70;1.53;;;;;7.30;97875.00;;;;9965159;29;20574;-82
2024/02/22 20:46:16;;;;;;;8.30;1.40;;;;;7.10;97895.00;;;;9988017;29;20228;-79
2024/02/22 20:51:17;;;;;;;5.03;1.47;;;;;7.10;97922.00;;;;9987313;29;20270;-81
2024/02/22 20:56:18;;;;;;;3.53;0.90;;;;;6.90;97956.00;;;;9994306;29;20562;-80
2024/02/22 21:01:20;;;;;;;3.70;1.00;;;;;6.60;97991.00;;;;9982800;29;20234;-80
2024/02/22 21:06:23;;;;;;;5.40;1.00;;;;;6.40;98026.00;;;;9979654;29;20618;-79
2024/02/22 21:11:24;;;;;;;0.67;0.67;;;;;6.20;98034.00;;;;9956236;29;20304;-79
2024/02/22 21:16:29;;;;;;;0.50;0.50;;;;;5.90;98060.00;;;;9986991;29;20225;-79
2024/02/22 21:21:31;;;;;;;1.17;0.97;;;;;5.90;98090.00;;;;9990056;29;20941;-79
2024/02/22 21:26:32;;;;;;;2.30;1.17;;;;;5.90;98086.00;;;;9969436;29;20238;-79
2024/02/22 21:31:33;;;;;;;1.97;1.00;;;;;5.80;98124.00;;;;10006333;29;20236;-79
2024/02/22 21:36:34;;;;;;;1.00;1.00;;;;;5.50;98169.00;;;;9967577;29;20308;-76
2024/02/22 21:41:36;;;;;;;2.30;1.00;;;;;5.40;98191.00;;;;9994889;29;20232;-76
2024/02/22 21:46:37;;;;;;;2.40;1.00;;;;;5.20;98198.00;;;;9980497;29;20330;-76
2024/02/22 21:51:43;;;;;;;1.53;1.10;;;;;5.20;98204.00;;;;9978939;29;20245;-75
2024/02/22 21:56:44;;;;;;;0.83;0.77;;;;;5.30;98225.00;;;;9992128;29;20230;-77
2024/02/22 22:01:45;;;;;;;2.70;1.20;;;;;5.30;98237.00;;;;9964787;29;20273;-76
2024/02/22 22:06:46;;;;;;;1.10;0.80;;;;;5.40;98252.00;;;;9964866;29;20268;-76
2024/02/22 22:11:48;;;;;;;1.80;1.03;;;;;5.40;98254.00;;;;9983901;29;20315;-77
2024/02/22 22:16:49;;;;;;;2.13;0.90;;;;;5.40;98286.00;;;;9970852;29;21087;-77
2024/02/22 22:21:52;;;;;;;0.90;0.90;;;;;5.40;98298.00;;;;9976498;29;20320;-77
2024/02/22 22:26:53;;;;;;;1.33;1.23;;;;;5.30;98308.00;;;;9999142;29;20795;-77
2024/02/22 22:31:54;;;;;;;0.80;0.80;;;;;5.20;98317.00;;;;9990569;29;20230;-77
2024/02/22 22:36:55;;;;;;;2.63;0.80;;;;;5.30;98331.00;;;;9975917;29;20308;-76
2024/02/22 22:41:56;;;;;;;1.23;0.80;;;;;5.50;98354.00;;;;9987181;29;20234;-75
2024/02/22 22:46:58;;;;;;;3.67;1.20;;;;;5.50;98348.00;;;;9999659;29;20233;-76
2024/02/22 22:51:59;;;;;;;0.87;0.70;;;;;5.50;98366.00;;;;9984971;29;20225;-76
2024/02/22 22:57:01;;;;;;;1.53;0.80;;;;;5.40;98375.00;;;;9997350;29;20256;-77
2024/02/22 23:02:02;;;;;;;2.93;0.60;;;;;5.30;98385.00;;;;9992870;29;21003;-76
2024/02/22 23:07:03;;;;;;;2.10;0.87;;;;;5.20;98379.00;;;;9993062;29;20232;-75
2024/02/22 23:12:05;;;;;;;1.67;0.50;;;;;5.10;98395.00;;;;10002711;29;20268;-76
2024/02/22 23:17:06;;;;;;;3.30;0.70;;;;;5.00;98410.00;;;;9967267;29;20312;-76
2024/02/22 23:22:07;;;;;;;2.53;0.57;;;;;4.90;98418.00;;;;9997726;29;20230;-75
2024/02/22 23:27:08;;;;;;;4.17;0.97;;;;;4.90;98425.00;;;;10002542;29;20229;-76
2024/02/22 23:32:09;;;;;;;2.77;0.70;;;;;4.80;98427.00;;;;9985194;29;20849;-75
2024/02/22 23:37:10;;;;;;;1.90;0.60;;;;;4.80;98432.00;;;;9985658;29;20232;-77
2024/02/22 23:42:12;;;;;;;2.33;0.77;;;;;4.80;98442.00;;;;9973726;29;20308;-76
2024/02/22 23:47:13;;;;;;;3.40;1.03;;;;;4.90;98439.00;;;;9992193;29;20232;-77
2024/02/22 23:52:14;;;;;;;3.80;1.00;;;;;4.90;98454.00;;;;9992756;29;20225;-76
2024/02/22 23:57:17;;;;;;;2.70;1.20;;;;;4.90;98474.00;;;;10002036;29;20226;-76
